sensor_id;sensor_type;location;lat;lon;timestamp;pressure;altitude;pressure_sealevel;temperature;humidity
71465;BME280;59274;49.874;9.154;2023-03-21T00:00:18;100642.94;;;7.98;93.53
71465;BME280;59274;49.874;9.154;2023-03-21T00:02:44;100640.78;;;8.04;93.82
71465;BME280;59274;49.874;9.154;2023-03-21T00:05:10;100637.78;;;7.93;94.75
71465;BME280;59274;49.874;9.154;2023-03-21T00:07:35;100642.59;;;8.00;96.16
71465;BME280;59274;49.874;9.154;2023-03-21T00:10:01;100632.47;;;7.97;96.17
71465;BME280;59274;49.874;9.154;2023-03-21T00:12:26;100632.38;;;7.93;96.40
71465;BME280;59274;49.874;9.154;2023-03-21T00:14:57;100631.06;;;7.87;96.98
71465;BME280;59274;49.874;9.154;2023-03-21T00:17:32;100625.72;;;8.03;96.59
71465;BME280;59274;49.874;9.154;2023-03-21T00:20:02;100624.50;;;8.16;96.35
71465;BME280;59274;49.874;9.154;2023-03-21T00:22:34;100630.00;;;8.19;95.97
71465;BME280;59274;49.874;9.154;2023-03-21T00:25:00;100626.56;;;8.35;94.50
71465;BME280;59274;49.874;9.154;2023-03-21T00:27:26;100624.44;;;8.28;93.57
71465;BME280;59274;49.874;9.154;2023-03-21T00:29:52;100616.88;;;8.34;93.43
71465;BME280;59274;49.874;9.154;2023-03-21T00:32:19;100616.19;;;8.37;94.26
71465;BME280;59274;49.874;9.154;2023-03-21T00:34:45;100618.56;;;8.26;90.73
71465;BME280;59274;49.874;9.154;2023-03-21T00:37:11;100619.81;;;8.29;91.04
71465;BME280;59274;49.874;9.154;2023-03-21T00:39:39;100610.78;;;8.09;91.64
71465;BME280;59274;49.874;9.154;2023-03-21T00:42:04;100609.38;;;7.99;93.21
71465;BME280;59274;49.874;9.154;2023-03-21T00:44:30;100607.31;;;8.08;94.54
71465;BME280;59274;49.874;9.154;2023-03-21T00:47:02;100608.63;;;8.14;92.21
71465;BME280;59274;49.874;9.154;2023-03-21T00:49:28;100604.69;;;8.12;93.15
71465;BME280;59274;49.874;9.154;2023-03-21T00:51:58;100590.47;;;8.15;94.52
71465;BME280;59274;49.874;9.154;2023-03-21T00:54:24;100585.06;;;8.15;92.70
71465;BME280;59274;49.874;9.154;2023-03-21T00:56:50;100584.34;;;8.18;92.92
71465;BME280;59274;49.874;9.154;2023-03-21T00:59:15;100575.25;;;8.10;93.37
71465;BME280;59274;49.874;9.154;2023-03-21T01:01:41;100577.69;;;8.00;93.88
71465;BME280;59274;49.874;9.154;2023-03-21T01:04:07;100571.13;;;7.85;99.35
71465;BME280;59274;49.874;9.154;2023-03-21T01:06:38;100571.91;;;7.85;99.81
71465;BME280;59274;49.874;9.154;2023-03-21T01:09:07;100572.97;;;7.81;99.19
71465;BME280;59274;49.874;9.154;2023-03-21T01:11:35;100572.13;;;7.65;99.00
71465;BME280;59274;49.874;9.154;2023-03-21T01:14:01;100571.91;;;7.58;99.71
71465;BME280;59274;49.874;9.154;2023-03-21T01:16:26;100571.91;;;7.58;100.00
71465;BME280;59274;49.874;9.154;2023-03-21T01:18:52;100577.38;;;7.73;98.72
71465;BME280;59274;49.874;9.154;2023-03-21T01:21:17;100575.81;;;7.72;99.25
71465;BME280;59274;49.874;9.154;2023-03-21T01:23:43;100574.56;;;7.70;99.34
71465;BME280;59274;49.874;9.154;2023-03-21T01:26:10;100570.88;;;7.62;98.55
71465;BME280;59274;49.874;9.154;2023-03-21T01:28:36;100575.53;;;7.50;95.82
71465;BME280;59274;49.874;9.154;2023-03-21T01:31:03;100570.41;;;7.60;94.46
71465;BME280;59274;49.874;9.154;2023-03-21T01:33:29;100573.19;;;7.48;93.73
71465;BME280;59274;49.874;9.154;2023-03-21T01:35:55;100563.16;;;7.48;93.84
71465;BME280;59274;49.874;9.154;2023-03-21T01:38:21;100566.56;;;7.45;94.54
71465;BME280;59274;49.874;9.154;2023-03-21T01:40:48;100568.16;;;7.34;95.47
71465;BME280;59274;49.874;9.154;2023-03-21T01:43:28;100570.28;;;7.41;98.52
71465;BME280;59274;49.874;9.154;2023-03-21T01:48:54;100564.88;;;7.41;97.24
71465;BME280;59274;49.874;9.154;2023-03-21T01:51:22;100551.09;;;7.46;97.54
71465;BME280;59274;49.874;9.154;2023-03-21T01:53:49;100548.53;;;7.50;97.97
71465;BME280;59274;49.874;9.154;2023-03-21T01:56:23;100553.81;;;7.46;98.31
71465;BME280;59274;49.874;9.154;2023-03-21T01:58:52;100551.81;;;7.43;97.85
71465;BME280;59274;49.874;9.154;2023-03-21T02:01:20;100544.81;;;7.42;97.65
71465;BME280;59274;49.874;9.154;2023-03-21T02:03:48;100550.56;;;7.40;97.07
71465;BME280;59274;49.874;9.154;2023-03-21T02:06:21;100545.66;;;7.30;96.00
71465;BME280;59274;49.874;9.154;2023-03-21T02:08:48;100543.63;;;7.27;95.50
71465;BME280;59274;49.874;9.154;2023-03-21T02:11:14;100540.72;;;7.20;96.42
71465;BME280;59274;49.874;9.154;2023-03-21T02:13:40;100536.84;;;7.33;97.53
71465;BME280;59274;49.874;9.154;2023-03-21T02:19:18;100540.22;;;7.42;96.87
71465;BME280;59274;49.874;9.154;2023-03-21T02:27:25;100537.44;;;7.27;100.00
71465;BME280;59274;49.874;9.154;2023-03-21T02:35:27;100534.69;;;7.39;100.00
71465;BME280;59274;49.874;9.154;2023-03-21T02:38:06;100538.38;;;7.46;100.00
71465;BME280;59274;49.874;9.154;2023-03-21T02:41:02;100531.44;;;7.33;100.00
71465;BME280;59274;49.874;9.154;2023-03-21T02:43:36;100521.88;;;7.36;100.00
71465;BME280;59274;49.874;9.154;2023-03-21T02:46:10;100528.94;;;7.40;100.00
71465;BME280;59274;49.874;9.154;2023-03-21T02:48:45;100522.75;;;7.40;99.24
71465;BME280;59274;49.874;9.154;2023-03-21T02:51:15;100525.56;;;7.43;100.00
71465;BME280;59274;49.874;9.154;2023-03-21T02:53:47;100521.97;;;7.39;98.84
71465;BME280;59274;49.874;9.154;2023-03-21T02:56:14;100521.56;;;7.37;98.24
71465;BME280;59274;49.874;9.154;2023-03-21T02:58:40;100519.81;;;7.17;99.34
71465;BME280;59274;49.874;9.154;2023-03-21T03:01:10;100514.88;;;7.07;98.62
71465;BME280;59274;49.874;9.154;2023-03-21T03:03:35;100517.16;;;6.93;99.84
71465;BME280;59274;49.874;9.154;2023-03-21T03:06:12;100516.59;;;6.75;100.00
71465;BME280;59274;49.874;9.154;2023-03-21T03:11:40;100520.78;;;6.73;100.00
71465;BME280;59274;49.874;9.154;2023-03-21T03:14:29;100517.41;;;6.76;100.00
71465;BME280;59274;49.874;9.154;2023-03-21T03:20:07;100519.22;;;6.72;100.00
71465;BME280;59274;49.874;9.154;2023-03-21T03:23:09;100518.34;;;6.67;100.00
71465;BME280;59274;49.874;9.154;2023-03-21T03:25:46;100514.72;;;6.63;100.00
71465;BME280;59274;49.874;9.154;2023-03-21T03:28:16;100511.34;;;6.54;100.00
71465;BME280;59274;49.874;9.154;2023-03-21T03:30:45;100512.38;;;6.50;100.00
71465;BME280;59274;49.874;9.154;2023-03-21T03:33:12;100507.53;;;6.43;100.00
71465;BME280;59274;49.874;9.154;2023-03-21T03:35:42;100519.13;;;6.44;100.00
71465;BME280;59274;49.874;9.154;2023-03-21T03:38:09;100508.53;;;6.26;100.00
71465;BME280;59274;49.874;9.154;2023-03-21T03:40:38;100513.03;;;6.10;100.00
71465;BME280;59274;49.874;9.154;2023-03-21T03:43:16;100509.09;;;6.08;100.00
71465;BME280;59274;49.874;9.154;2023-03-21T03:45:46;100516.91;;;5.88;100.00
71465;BME280;59274;49.874;9.154;2023-03-21T03:48:23;100510.31;;;5.77;100.00
71465;BME280;59274;49.874;9.154;2023-03-21T03:53:51;100515.91;;;5.60;100.00
71465;BME280;59274;49.874;9.154;2023-03-21T03:56:18;100511.63;;;5.59;100.00
71465;BME280;59274;49.874;9.154;2023-03-21T03:58:45;100507.56;;;5.53;100.00
71465;BME280;59274;49.874;9.154;2023-03-21T04:01:10;100505.91;;;5.61;100.00
71465;BME280;59274;49.874;9.154;2023-03-21T04:03:38;100506.03;;;5.64;100.00
71465;BME280;59274;49.874;9.154;2023-03-21T04:06:05;100506.94;;;5.68;100.00
71465;BME280;59274;49.874;9.154;2023-03-21T04:08:30;100508.50;;;5.69;100.00
71465;BME280;59274;49.874;9.154;2023-03-21T04:10:56;100502.94;;;5.74;100.00
71465;BME280;59274;49.874;9.154;2023-03-21T04:13:21;100505.41;;;5.79;100.00
71465;BME280;59274;49.874;9.154;2023-03-21T04:15:47;100503.16;;;5.81;100.00
71465;BME280;59274;49.874;9.154;2023-03-21T04:18:12;100500.81;;;5.80;100.00
71465;BME280;59274;49.874;9.154;2023-03-21T04:20:38;100504.38;;;5.84;100.00
71465;BME280;59274;49.874;9.154;2023-03-21T04:23:04;100497.38;;;5.92;100.00
71465;BME280;59274;49.874;9.154;2023-03-21T04:25:36;100501.78;;;5.96;100.00
71465;BME280;59274;49.874;9.154;2023-03-21T04:28:01;100504.09;;;5.98;100.00
71465;BME280;59274;49.874;9.154;2023-03-21T04:30:27;100503.00;;;5.99;100.00
71465;BME280;59274;49.874;9.154;2023-03-21T04:32:53;100505.69;;;5.99;100.00
71465;BME280;59274;49.874;9.154;2023-03-21T04:35:21;100510.75;;;6.00;100.00
71465;BME280;59274;49.874;9.154;2023-03-21T04:37:47;100507.50;;;6.07;100.00
71465;BME280;59274;49.874;9.154;2023-03-21T04:40:13;100506.06;;;6.09;100.00
71465;BME280;59274;49.874;9.154;2023-03-21T04:42:42;100504.81;;;6.07;100.00
71465;BME280;59274;49.874;9.154;2023-03-21T04:45:07;100498.06;;;6.01;100.00
71465;BME280;59274;49.874;9.154;2023-03-21T04:47:33;100499.06;;;5.96;100.00
71465;BME280;59274;49.874;9.154;2023-03-21T04:49:59;100489.19;;;5.88;100.00
71465;BME280;59274;49.874;9.154;2023-03-21T04:52:25;100490.59;;;5.85;100.00
71465;BME280;59274;49.874;9.154;2023-03-21T04:54:50;100493.44;;;5.89;100.00
71465;BME280;59274;49.874;9.154;2023-03-21T04:57:15;100492.66;;;5.88;100.00
71465;BME280;59274;49.874;9.154;2023-03-21T04:59:41;100490.84;;;5.93;100.00
71465;BME280;59274;49.874;9.154;2023-03-21T05:02:07;100481.88;;;5.88;100.00
71465;BME280;59274;49.874;9.154;2023-03-21T05:04:32;100482.69;;;6.01;100.00
71465;BME280;59274;49.874;9.154;2023-03-21T05:06:58;100481.44;;;5.99;100.00
71465;BME280;59274;49.874;9.154;2023-03-21T05:09:23;100488.16;;;5.93;100.00
71465;BME280;59274;49.874;9.154;2023-03-21T05:11:50;100488.69;;;5.86;100.00
71465;BME280;59274;49.874;9.154;2023-03-21T05:14:18;100490.66;;;5.65;100.00
71465;BME280;59274;49.874;9.154;2023-03-21T05:16:45;100488.47;;;5.46;100.00
71465;BME280;59274;49.874;9.154;2023-03-21T05:19:18;100483.19;;;5.49;100.00
71465;BME280;59274;49.874;9.154;2023-03-21T05:21:45;100491.53;;;5.57;100.00
71465;BME280;59274;49.874;9.154;2023-03-21T05:24:16;100494.13;;;5.65;100.00
71465;BME280;59274;49.874;9.154;2023-03-21T05:26:43;100488.59;;;5.62;100.00
71465;BME280;59274;49.874;9.154;2023-03-21T05:29:09;100495.16;;;5.73;100.00
71465;BME280;59274;49.874;9.154;2023-03-21T05:31:35;100491.91;;;5.67;100.00
71465;BME280;59274;49.874;9.154;2023-03-21T05:34:01;100491.91;;;5.67;100.00
71465;BME280;59274;49.874;9.154;2023-03-21T05:36:27;100494.78;;;5.62;100.00
71465;BME280;59274;49.874;9.154;2023-03-21T05:38:53;100489.94;;;5.56;100.00
71465;BME280;59274;49.874;9.154;2023-03-21T05:41:18;100495.31;;;5.56;100.00
71465;BME280;59274;49.874;9.154;2023-03-21T05:43:46;100490.06;;;5.59;100.00
71465;BME280;59274;49.874;9.154;2023-03-21T05:46:12;100493.00;;;5.54;100.00
71465;BME280;59274;49.874;9.154;2023-03-21T05:48:37;100494.75;;;5.50;100.00
71465;BME280;59274;49.874;9.154;2023-03-21T05:51:03;100489.16;;;5.55;100.00
71465;BME280;59274;49.874;9.154;2023-03-21T05:53:29;100493.47;;;5.68;100.00
71465;BME280;59274;49.874;9.154;2023-03-21T05:55:55;100491.53;;;5.69;100.00
71465;BME280;59274;49.874;9.154;2023-03-21T05:58:20;100492.38;;;5.81;100.00
71465;BME280;59274;49.874;9.154;2023-03-21T06:00:45;100496.53;;;5.79;100.00
71465;BME280;59274;49.874;9.154;2023-03-21T06:03:11;100486.22;;;5.81;100.00
71465;BME280;59274;49.874;9.154;2023-03-21T06:05:36;100490.09;;;5.71;100.00
71465;BME280;59274;49.874;9.154;2023-03-21T06:08:02;100491.44;;;5.65;100.00
71465;BME280;59274;49.874;9.154;2023-03-21T06:10:27;100496.47;;;5.87;100.00
71465;BME280;59274;49.874;9.154;2023-03-21T06:12:53;100491.88;;;6.00;100.00
71465;BME280;59274;49.874;9.154;2023-03-21T06:15:18;100482.69;;;6.13;100.00
71465;BME280;59274;49.874;9.154;2023-03-21T06:17:44;100486.16;;;6.14;100.00
71465;BME280;59274;49.874;9.154;2023-03-21T06:20:10;100490.00;;;6.25;100.00
71465;BME280;59274;49.874;9.154;2023-03-21T06:22:36;100496.28;;;6.41;100.00
71465;BME280;59274;49.874;9.154;2023-03-21T06:25:04;100491.13;;;6.60;100.00
71465;BME280;59274;49.874;9.154;2023-03-21T06:27:30;100485.78;;;6.76;100.00
71465;BME280;59274;49.874;9.154;2023-03-21T06:29:55;100489.03;;;6.94;100.00
71465;BME280;59274;49.874;9.154;2023-03-21T06:32:25;100499.09;;;7.21;100.00
71465;BME280;59274;49.874;9.154;2023-03-21T06:34:51;100497.38;;;7.29;100.00
71465;BME280;59274;49.874;9.154;2023-03-21T06:37:17;100500.56;;;7.46;100.00
71465;BME280;59274;49.874;9.154;2023-03-21T06:39:43;100506.06;;;7.50;100.00
71465;BME280;59274;49.874;9.154;2023-03-21T06:42:08;100496.91;;;7.55;99.71
71465;BME280;59274;49.874;9.154;2023-03-21T06:44:34;100506.41;;;7.48;100.00
71465;BME280;59274;49.874;9.154;2023-03-21T06:46:59;100504.75;;;7.44;100.00
71465;BME280;59274;49.874;9.154;2023-03-21T06:49:25;100507.53;;;7.47;100.00
71465;BME280;59274;49.874;9.154;2023-03-21T06:51:51;100506.31;;;7.45;100.00
71465;BME280;59274;49.874;9.154;2023-03-21T06:54:18;100508.25;;;7.44;99.22
71465;BME280;59274;49.874;9.154;2023-03-21T06:56:44;100517.94;;;7.33;99.57
71465;BME280;59274;49.874;9.154;2023-03-21T06:59:10;100514.81;;;7.31;99.53
71465;BME280;59274;49.874;9.154;2023-03-21T07:01:35;100513.66;;;7.32;100.00
71465;BME280;59274;49.874;9.154;2023-03-21T07:04:01;100516.28;;;7.29;100.00
71465;BME280;59274;49.874;9.154;2023-03-21T07:06:26;100512.69;;;7.25;100.00
71465;BME280;59274;49.874;9.154;2023-03-21T07:08:53;100512.00;;;7.28;100.00
71465;BME280;59274;49.874;9.154;2023-03-21T07:11:20;100515.84;;;7.27;100.00
71465;BME280;59274;49.874;9.154;2023-03-21T07:13:45;100515.09;;;7.42;100.00
71465;BME280;59274;49.874;9.154;2023-03-21T07:16:13;100518.31;;;7.60;100.00
71465;BME280;59274;49.874;9.154;2023-03-21T07:18:40;100518.31;;;7.75;99.43
71465;BME280;59274;49.874;9.154;2023-03-21T07:21:05;100514.97;;;7.94;98.80
71465;BME280;59274;49.874;9.154;2023-03-21T07:23:31;100517.31;;;8.11;97.57
71465;BME280;59274;49.874;9.154;2023-03-21T07:25:56;100516.09;;;8.24;96.09
71465;BME280;59274;49.874;9.154;2023-03-21T07:28:22;100515.72;;;8.38;95.40
71465;BME280;59274;49.874;9.154;2023-03-21T07:30:56;100513.75;;;8.54;93.57
71465;BME280;59274;49.874;9.154;2023-03-21T07:33:22;100510.53;;;8.64;92.44
71465;BME280;59274;49.874;9.154;2023-03-21T07:35:49;100506.75;;;8.69;92.42
71465;BME280;59274;49.874;9.154;2023-03-21T07:38:15;100501.31;;;8.85;91.60
71465;BME280;59274;49.874;9.154;2023-03-21T07:40:42;100498.13;;;8.98;90.64
71465;BME280;59274;49.874;9.154;2023-03-21T07:43:07;100494.88;;;9.09;89.89
71465;BME280;59274;49.874;9.154;2023-03-21T07:45:33;100495.56;;;9.25;90.10
71465;BME280;59274;49.874;9.154;2023-03-21T07:47:59;100490.03;;;9.37;90.34
71465;BME280;59274;49.874;9.154;2023-03-21T07:50:25;100483.56;;;9.45;90.84
71465;BME280;59274;49.874;9.154;2023-03-21T07:52:50;100476.09;;;9.58;88.85
71465;BME280;59274;49.874;9.154;2023-03-21T07:55:16;100474.34;;;9.69;88.87
71465;BME280;59274;49.874;9.154;2023-03-21T07:57:42;100476.84;;;9.77;86.97
71465;BME280;59274;49.874;9.154;2023-03-21T08:00:08;100477.66;;;9.81;89.22
71465;BME280;59274;49.874;9.154;2023-03-21T08:02:33;100473.09;;;9.86;88.40
71465;BME280;59274;49.874;9.154;2023-03-21T08:04:59;100479.06;;;9.95;88.02
71465;BME280;59274;49.874;9.154;2023-03-21T08:07:24;100478.78;;;10.00;86.53
71465;BME280;59274;49.874;9.154;2023-03-21T08:09:51;100480.59;;;10.15;85.90
71465;BME280;59274;49.874;9.154;2023-03-21T08:12:17;100478.53;;;10.31;85.71
71465;BME280;59274;49.874;9.154;2023-03-21T08:14:42;100471.34;;;10.42;84.23
71465;BME280;59274;49.874;9.154;2023-03-21T08:17:08;100473.91;;;10.58;83.68
71465;BME280;59274;49.874;9.154;2023-03-21T08:19:34;100474.16;;;10.76;82.50
71465;BME280;59274;49.874;9.154;2023-03-21T08:22:00;100472.13;;;10.99;80.87
71465;BME280;59274;49.874;9.154;2023-03-21T08:24:27;100473.81;;;11.07;78.95
71465;BME280;59274;49.874;9.154;2023-03-21T08:26:53;100468.91;;;11.20;78.01
71465;BME280;59274;49.874;9.154;2023-03-21T08:29:18;100477.06;;;11.20;79.68
71465;BME280;59274;49.874;9.154;2023-03-21T08:31:45;100471.88;;;11.45;76.68
71465;BME280;59274;49.874;9.154;2023-03-21T08:34:11;100479.66;;;11.76;76.45
71465;BME280;59274;49.874;9.154;2023-03-21T08:36:38;100481.22;;;11.81;75.34
71465;BME280;59274;49.874;9.154;2023-03-21T08:39:04;100472.22;;;12.17;75.15
71465;BME280;59274;49.874;9.154;2023-03-21T08:41:31;100479.81;;;12.41;73.02
71465;BME280;59274;49.874;9.154;2023-03-21T08:43:56;100485.06;;;12.68;71.89
71465;BME280;59274;49.874;9.154;2023-03-21T08:46:22;100479.75;;;12.92;71.30
71465;BME280;59274;49.874;9.154;2023-03-21T08:48:47;100478.25;;;13.06;70.55
71465;BME280;59274;49.874;9.154;2023-03-21T08:51:12;100480.28;;;13.19;69.95
71465;BME280;59274;49.874;9.154;2023-03-21T08:53:38;100479.94;;;13.28;69.71
71465;BME280;59274;49.874;9.154;2023-03-21T08:56:06;100477.25;;;13.39;70.50
71465;BME280;59274;49.874;9.154;2023-03-21T08:58:31;100485.88;;;13.62;69.44
71465;BME280;59274;49.874;9.154;2023-03-21T09:00:58;100479.69;;;13.90;69.03
71465;BME280;59274;49.874;9.154;2023-03-21T09:03:24;100482.44;;;13.97;69.11
71465;BME280;59274;49.874;9.154;2023-03-21T09:05:54;100478.16;;;13.99;67.19
71465;BME280;59274;49.874;9.154;2023-03-21T09:08:20;100476.97;;;14.00;70.47
71465;BME280;59274;49.874;9.154;2023-03-21T09:10:53;100476.59;;;14.16;67.60
71465;BME280;59274;49.874;9.154;2023-03-21T09:13:20;100478.91;;;14.00;67.97
71465;BME280;59274;49.874;9.154;2023-03-21T09:15:45;100462.53;;;14.14;67.69
71465;BME280;59274;49.874;9.154;2023-03-21T09:18:11;100472.66;;;13.82;64.23
71465;BME280;59274;49.874;9.154;2023-03-21T09:20:47;100467.19;;;13.67;63.17
71465;BME280;59274;49.874;9.154;2023-03-21T09:23:14;100465.97;;;13.51;64.99
71465;BME280;59274;49.874;9.154;2023-03-21T09:25:40;100472.25;;;13.76;64.71
71465;BME280;59274;49.874;9.154;2023-03-21T09:28:07;100467.63;;;14.05;62.34
71465;BME280;59274;49.874;9.154;2023-03-21T09:30:34;100469.56;;;14.04;62.46
71465;BME280;59274;49.874;9.154;2023-03-21T09:33:02;100463.72;;;14.06;64.25
71465;BME280;59274;49.874;9.154;2023-03-21T09:35:31;100466.84;;;14.33;60.44
71465;BME280;59274;49.874;9.154;2023-03-21T09:37:57;100457.09;;;14.39;59.41
71465;BME280;59274;49.874;9.154;2023-03-21T09:43:35;100460.59;;;14.54;58.86
71465;BME280;59274;49.874;9.154;2023-03-21T09:46:18;100453.53;;;14.60;60.19
71465;BME280;59274;49.874;9.154;2023-03-21T09:48:55;100448.78;;;14.78;60.01
71465;BME280;59274;49.874;9.154;2023-03-21T09:51:25;100452.19;;;15.14;61.13
71465;BME280;59274;49.874;9.154;2023-03-21T09:53:54;100440.81;;;15.22;59.07
71465;BME280;59274;49.874;9.154;2023-03-21T09:56:22;100443.81;;;15.46;57.93
71465;BME280;59274;49.874;9.154;2023-03-21T09:58:54;100448.69;;;15.06;61.11
71465;BME280;59274;49.874;9.154;2023-03-21T10:01:25;100450.72;;;14.88;60.70
71465;BME280;59274;49.874;9.154;2023-03-21T10:03:58;100457.75;;;14.85;59.38
71465;BME280;59274;49.874;9.154;2023-03-21T10:06:25;100452.97;;;15.18;58.61
71465;BME280;59274;49.874;9.154;2023-03-21T10:08:59;100440.81;;;15.22;58.88
71465;BME280;59274;49.874;9.154;2023-03-21T10:11:37;100453.47;;;14.92;60.95
71465;BME280;59274;49.874;9.154;2023-03-21T10:14:18;100439.75;;;15.02;60.20
71465;BME280;59274;49.874;9.154;2023-03-21T10:16:51;100449.53;;;14.93;57.41
71465;BME280;59274;49.874;9.154;2023-03-21T10:19:19;100447.63;;;14.79;56.36
71465;BME280;59274;49.874;9.154;2023-03-21T10:21:47;100452.72;;;14.77;56.68
71465;BME280;59274;49.874;9.154;2023-03-21T10:24:15;100444.59;;;14.56;56.44
71465;BME280;59274;49.874;9.154;2023-03-21T10:26:42;100444.59;;;14.20;56.84
71465;BME280;59274;49.874;9.154;2023-03-21T10:29:11;100441.84;;;14.31;57.23
71465;BME280;59274;49.874;9.154;2023-03-21T10:31:39;100440.28;;;14.16;58.10
71465;BME280;59274;49.874;9.154;2023-03-21T10:34:17;100441.47;;;14.04;58.24
71465;BME280;59274;49.874;9.154;2023-03-21T10:36:43;100437.16;;;13.82;59.38
71465;BME280;59274;49.874;9.154;2023-03-21T10:39:33;100449.28;;;13.84;59.72
71465;BME280;59274;49.874;9.154;2023-03-21T10:42:00;100441.88;;;13.85;59.31
71465;BME280;59274;49.874;9.154;2023-03-21T10:44:30;100441.44;;;13.79;57.70
71465;BME280;59274;49.874;9.154;2023-03-21T10:47:02;100438.34;;;13.81;57.11
71465;BME280;59274;49.874;9.154;2023-03-21T10:49:29;100437.53;;;13.73;58.17
71465;BME280;59274;49.874;9.154;2023-03-21T10:51:57;100445.38;;;13.89;58.94
71465;BME280;59274;49.874;9.154;2023-03-21T10:54:32;100437.56;;;13.94;58.29
71465;BME280;59274;49.874;9.154;2023-03-21T10:57:14;100438.34;;;13.88;58.90
71465;BME280;59274;49.874;9.154;2023-03-21T10:59:42;100441.44;;;13.86;61.48
71465;BME280;59274;49.874;9.154;2023-03-21T11:02:46;100444.59;;;13.78;65.38
71465;BME280;59274;49.874;9.154;2023-03-21T11:05:19;100446.50;;;13.59;66.09
71465;BME280;59274;49.874;9.154;2023-03-21T11:07:47;100441.47;;;13.76;64.28
71465;BME280;59274;49.874;9.154;2023-03-21T11:10:15;100436.78;;;13.76;60.52
71465;BME280;59274;49.874;9.154;2023-03-21T11:12:54;100434.84;;;13.91;61.90
71465;BME280;59274;49.874;9.154;2023-03-21T11:15:28;100432.47;;;13.86;62.58
71465;BME280;59274;49.874;9.154;2023-03-21T11:17:55;100432.13;;;14.12;61.88
71465;BME280;59274;49.874;9.154;2023-03-21T11:20:21;100435.63;;;13.95;60.89
71465;BME280;59274;49.874;9.154;2023-03-21T11:22:47;100436.00;;;13.90;59.80
71465;BME280;59274;49.874;9.154;2023-03-21T11:25:40;100443.41;;;13.96;58.58
71465;BME280;59274;49.874;9.154;2023-03-21T11:28:18;100435.63;;;13.77;59.20
71465;BME280;59274;49.874;9.154;2023-03-21T11:30:49;100430.94;;;13.70;59.67
71465;BME280;59274;49.874;9.154;2023-03-21T11:33:16;100428.97;;;13.75;60.05
71465;BME280;59274;49.874;9.154;2023-03-21T11:35:42;100421.56;;;13.86;59.44
71465;BME280;59274;49.874;9.154;2023-03-21T11:38:25;100431.28;;;13.65;58.26
71465;BME280;59274;49.874;9.154;2023-03-21T11:40:53;100430.13;;;13.59;59.72
71465;BME280;59274;49.874;9.154;2023-03-21T11:46:08;100420.00;;;13.63;60.21
71465;BME280;59274;49.874;9.154;2023-03-21T11:48:42;100424.28;;;13.68;62.02
71465;BME280;59274;49.874;9.154;2023-03-21T11:53:39;100415.72;;;13.80;60.89
71465;BME280;59274;49.874;9.154;2023-03-21T11:56:24;100411.03;;;13.88;60.66
71465;BME280;59274;49.874;9.154;2023-03-21T12:09:39;100397.78;;;13.61;62.61
71465;BME280;59274;49.874;9.154;2023-03-21T12:12:18;100402.44;;;13.57;62.53
71465;BME280;59274;49.874;9.154;2023-03-21T12:17:37;100398.41;;;13.09;64.97
71465;BME280;59274;49.874;9.154;2023-03-21T12:20:15;100398.00;;;13.00;66.44
71465;BME280;59274;49.874;9.154;2023-03-21T12:22:52;100406.66;;;13.23;66.80
71465;BME280;59274;49.874;9.154;2023-03-21T12:25:41;100399.28;;;13.27;67.60
71465;BME280;59274;49.874;9.154;2023-03-21T12:28:26;100394.09;;;13.08;69.21
71465;BME280;59274;49.874;9.154;2023-03-21T12:30:59;100391.34;;;12.97;72.52
71465;BME280;59274;49.874;9.154;2023-03-21T12:44:59;100385.28;;;12.42;77.14
71465;BME280;59274;49.874;9.154;2023-03-21T12:47:29;100378.88;;;12.16;76.87
71465;BME280;59274;49.874;9.154;2023-03-21T12:50:04;100386.16;;;12.02;76.28
71465;BME280;59274;49.874;9.154;2023-03-21T12:52:41;100386.16;;;11.98;77.23
71465;BME280;59274;49.874;9.154;2023-03-21T12:55:33;100381.53;;;12.09;78.18
71465;BME280;59274;49.874;9.154;2023-03-21T12:58:18;100376.16;;;12.16;79.40
71465;BME280;59274;49.874;9.154;2023-03-21T13:00:51;100380.19;;;12.40;79.97
71465;BME280;59274;49.874;9.154;2023-03-21T13:03:29;100376.66;;;12.36;77.99
71465;BME280;59274;49.874;9.154;2023-03-21T13:05:59;100377.44;;;12.37;78.50
71465;BME280;59274;49.874;9.154;2023-03-21T13:11:04;100373.50;;;12.31;78.54
71465;BME280;59274;49.874;9.154;2023-03-21T13:13:35;100370.66;;;12.09;77.82
71465;BME280;59274;49.874;9.154;2023-03-21T13:19:02;100361.66;;;12.02;78.58
71465;BME280;59274;49.874;9.154;2023-03-21T13:24:15;100354.38;;;12.16;80.68
71465;BME280;59274;49.874;9.154;2023-03-21T13:26:46;100348.22;;;12.27;80.89
71465;BME280;59274;49.874;9.154;2023-03-21T13:29:26;100341.66;;;12.35;80.10
71465;BME280;59274;49.874;9.154;2023-03-21T13:31:54;100334.69;;;12.41;80.54
71465;BME280;59274;49.874;9.154;2023-03-21T13:34:22;100338.56;;;12.43;81.02
71465;BME280;59274;49.874;9.154;2023-03-21T13:36:49;100337.44;;;12.48;79.44
71465;BME280;59274;49.874;9.154;2023-03-21T13:39:23;100328.53;;;12.65;80.95
71465;BME280;59274;49.874;9.154;2023-03-21T13:41:49;100328.22;;;12.88;77.35
71465;BME280;59274;49.874;9.154;2023-03-21T13:53:15;100310.84;;;13.49;78.26
71465;BME280;59274;49.874;9.154;2023-03-21T13:55:45;100311.59;;;13.46;81.20
71465;BME280;59274;49.874;9.154;2023-03-21T13:58:31;100310.03;;;13.27;77.23
71465;BME280;59274;49.874;9.154;2023-03-21T14:06:32;100299.44;;;13.08;77.32
71465;BME280;59274;49.874;9.154;2023-03-21T14:08:58;100306.47;;;12.99;76.56
71465;BME280;59274;49.874;9.154;2023-03-21T14:11:27;100308.00;;;12.85;77.48
71465;BME280;59274;49.874;9.154;2023-03-21T14:13:53;100305.56;;;12.66;77.24
71465;BME280;59274;49.874;9.154;2023-03-21T14:16:19;100303.69;;;12.81;79.66
71465;BME280;59274;49.874;9.154;2023-03-21T14:18:55;100305.94;;;12.54;82.11
71465;BME280;59274;49.874;9.154;2023-03-21T14:21:29;100304.34;;;12.46;81.19
71465;BME280;59274;49.874;9.154;2023-03-21T14:26:29;100301.19;;;12.40;85.15